Time;durP1;ratioP1;P1;durP2;ratioP2;P2;SDS_P1;SDS_P2;PMS_P1;PMS_P2;Temp;Humidity;BMP_temperature;BMP_pressure;BME280_temperature;BME280_humidity;BME280_pressure;Samples;Min_cycle;Max_cycle;Signal;HPM_P1;HPM_P2
2022/12/01 00:06:04;;;;;;;22.60;15.63;;;;;;;;;;5089503;28;20298;-75
2022/12/01 00:08:30;;;;;;;19.37;15.10;;;;;;;;;;5073461;28;20188;-75
2022/12/01 00:11:02;;;;;;;23.63;16.27;;;;;;;;;;5086781;28;20266;-75
2022/12/01 00:13:28;;;;;;;23.03;16.33;;;;;;;;;;5092923;28;20222;-75
2022/12/01 00:15:54;;;;;;;21.87;16.80;;;;;;;;;;5089799;28;20238;-76
2022/12/01 00:18:21;;;;;;;22.67;15.77;;;;;;;;;;5091476;28;20188;-75
2022/12/01 00:20:50;;;;;;;20.97;16.20;;;;;;;;;;5090478;28;20180;-74
2022/12/01 00:23:16;;;;;;;21.17;16.40;;;;;;;;;;5092439;28;20235;-75
2022/12/01 00:25:42;;;;;;;21.27;15.90;;;;;;;;;;5083898;28;20216;-75
2022/12/01 00:28:08;;;;;;;22.00;16.13;;;;;;;;;;5077199;28;20264;-75
2022/12/01 00:30:34;;;;;;;22.20;16.13;;;;;;;;;;5090949;28;20184;-75
2022/12/01 00:33:00;;;;;;;27.73;18.63;;;;;;;;;;5075142;28;20177;-74
2022/12/01 00:35:26;;;;;;;20.93;16.57;;;;;;;;;;5075931;28;20183;-75
2022/12/01 00:37:52;;;;;;;22.63;17.70;;;;;;;;;;5087526;28;20588;-75
2022/12/01 00:40:18;;;;;;;20.63;16.20;;;;;;;;;;5087349;28;20181;-75
2022/12/01 00:42:44;;;;;;;25.37;16.90;;;;;;;;;;5090358;28;20180;-75
2022/12/01 00:45:10;;;;;;;20.70;16.63;;;;;;;;;;5096985;28;20718;-75
2022/12/01 00:47:36;;;;;;;22.23;16.90;;;;;;;;;;5086450;28;20180;-75
2022/12/01 00:50:03;;;;;;;20.47;16.63;;;;;;;;;;5085313;28;20181;-75
2022/12/01 00:52:29;;;;;;;22.83;16.80;;;;;;;;;;5091172;28;20180;-76
2022/12/01 00:54:55;;;;;;;22.27;16.77;;;;;;;;;;5088669;28;20649;-75
2022/12/01 00:57:21;;;;;;;21.57;17.27;;;;;;;;;;5091689;28;20212;-76
2022/12/01 00:59:47;;;;;;;21.80;17.00;;;;;;;;;;5090190;28;20279;-76
2022/12/01 01:02:13;;;;;;;23.27;17.67;;;;;;;;;;5088168;28;20267;-75
2022/12/01 01:04:39;;;;;;;21.70;17.07;;;;;;;;;;5091482;28;20637;-74
2022/12/01 01:07:05;;;;;;;21.17;17.17;;;;;;;;;;5089317;28;20185;-76
2022/12/01 01:09:32;;;;;;;22.83;17.73;;;;;;;;;;5073883;28;20291;-76
2022/12/01 01:11:58;;;;;;;22.17;17.90;;;;;;;;;;5093927;28;20187;-75
2022/12/01 01:14:25;;;;;;;23.93;18.07;;;;;;;;;;5092105;28;20192;-76
2022/12/01 01:16:52;;;;;;;25.37;19.33;;;;;;;;;;5084764;28;20189;-75
2022/12/01 01:19:18;;;;;;;24.60;19.70;;;;;;;;;;5080561;28;20519;-74
2022/12/01 01:21:44;;;;;;;25.63;19.70;;;;;;;;;;5086074;28;20184;-76
2022/12/01 01:24:10;;;;;;;25.40;20.10;;;;;;;;;;5075222;28;20229;-76
2022/12/01 01:26:37;;;;;;;25.13;20.03;;;;;;;;;;5075156;28;20699;-75
2022/12/01 01:29:05;;;;;;;24.40;19.00;;;;;;;;;;5081089;28;20649;-74
2022/12/01 01:31:31;;;;;;;26.57;20.00;;;;;;;;;;5085655;28;20180;-75
2022/12/01 01:33:57;;;;;;;25.87;20.43;;;;;;;;;;5076908;28;20169;-74
2022/12/01 01:36:23;;;;;;;28.03;21.63;;;;;;;;;;5073377;28;20199;-76
2022/12/01 01:38:54;;;;;;;27.57;20.40;;;;;;;;;;5089475;28;20199;-75
2022/12/01 01:41:20;;;;;;;26.53;21.27;;;;;;;;;;5078420;28;20188;-76
2022/12/01 01:43:50;;;;;;;27.40;21.07;;;;;;;;;;5081412;28;20204;-76
2022/12/01 01:46:18;;;;;;;26.27;20.53;;;;;;;;;;5087521;28;20200;-75
2022/12/01 01:49:04;;;;;;;24.37;19.00;;;;;;;;;;5075293;28;20189;-76
2022/12/01 01:51:31;;;;;;;23.53;19.00;;;;;;;;;;5089142;28;20675;-75
2022/12/01 01:54:01;;;;;;;27.97;21.50;;;;;;;;;;5093709;28;20172;-75
2022/12/01 01:56:27;;;;;;;26.63;20.13;;;;;;;;;;5079867;28;20189;-76
2022/12/01 01:58:54;;;;;;;25.40;20.57;;;;;;;;;;5086318;28;20180;-76
2022/12/01 02:01:20;;;;;;;27.37;20.77;;;;;;;;;;5088056;28;20173;-75
2022/12/01 02:03:47;;;;;;;23.40;19.97;;;;;;;;;;5074968;28;20187;-76
2022/12/01 02:06:13;;;;;;;25.97;19.23;;;;;;;;;;5088572;28;20207;-76
2022/12/01 02:08:39;;;;;;;24.10;18.40;;;;;;;;;;5081094;28;20200;-76
2022/12/01 02:11:13;;;;;;;25.47;19.97;;;;;;;;;;5082752;28;20637;-76
2022/12/01 02:13:42;;;;;;;29.63;21.87;;;;;;;;;;5079508;28;20263;-75
2022/12/01 02:16:08;;;;;;;26.10;21.10;;;;;;;;;;5076219;28;20189;-75
2022/12/01 02:18:41;;;;;;;25.67;21.60;;;;;;;;;;5088052;28;20184;-76
2022/12/01 02:21:07;;;;;;;27.53;21.50;;;;;;;;;;5082348;28;20637;-74
2022/12/01 02:23:33;;;;;;;26.20;21.23;;;;;;;;;;5089144;28;20695;-76
2022/12/01 02:26:18;;;;;;;27.47;21.60;;;;;;;;;;5089781;28;20211;-76
2022/12/01 02:29:03;;;;;;;26.87;21.03;;;;;;;;;;5084919;28;20185;-76
2022/12/01 02:31:29;;;;;;;26.60;22.03;;;;;;;;;;5082019;28;20188;-76
2022/12/01 02:34:17;;;;;;;26.20;21.63;;;;;;;;;;5073975;28;20188;-75
2022/12/01 02:36:48;;;;;;;26.87;21.10;;;;;;;;;;5087946;28;20675;-75
2022/12/01 02:39:29;;;;;;;25.43;21.00;;;;;;;;;;5090144;28;20187;-75
2022/12/01 02:42:04;;;;;;;26.57;21.10;;;;;;;;;;5090136;28;20169;-76
2022/12/01 02:44:33;;;;;;;29.73;22.77;;;;;;;;;;5077417;28;20272;-76
2022/12/01 02:47:02;;;;;;;29.17;22.57;;;;;;;;;;5088444;28;20204;-76
2022/12/01 02:49:31;;;;;;;26.77;21.87;;;;;;;;;;5088802;28;20192;-76
2022/12/01 02:51:58;;;;;;;28.10;21.47;;;;;;;;;;5075030;28;20173;-75
2022/12/01 02:54:25;;;;;;;28.13;22.37;;;;;;;;;;5088470;28;20169;-76
2022/12/01 02:56:52;;;;;;;27.03;21.90;;;;;;;;;;5078465;28;20188;-75
2022/12/01 02:59:18;;;;;;;28.10;22.23;;;;;;;;;;5089623;28;20177;-75
2022/12/01 03:01:44;;;;;;;31.83;23.50;;;;;;;;;;5089315;28;20197;-75
2022/12/01 03:04:29;;;;;;;28.13;23.33;;;;;;;;;;5088244;28;20267;-74
2022/12/01 03:07:18;;;;;;;28.30;22.07;;;;;;;;;;5074507;28;20292;-75
2022/12/01 03:09:50;;;;;;;26.63;23.03;;;;;;;;;;5028311;28;20694;-75
2022/12/01 03:12:28;;;;;;;28.17;22.27;;;;;;;;;;5011602;28;20690;-75
2022/12/01 03:15:07;;;;;;;32.77;24.67;;;;;;;;;;5027967;28;20204;-76
2022/12/01 03:17:40;;;;;;;27.33;23.23;;;;;;;;;;5028136;28;20600;-75
2022/12/01 03:20:32;;;;;;;31.93;25.03;;;;;;;;;;5027971;28;20282;-74
2022/12/01 03:23:01;;;;;;;32.23;24.57;;;;;;;;;;5025756;28;20673;-75
2022/12/01 03:25:28;;;;;;;30.93;24.80;;;;;;;;;;5028022;28;20206;-75
2022/12/01 03:27:55;;;;;;;31.47;25.07;;;;;;;;;;5027996;28;20199;-75
2022/12/01 03:30:23;;;;;;;31.33;24.80;;;;;;;;;;5011760;28;20282;-75
2022/12/01 03:32:51;;;;;;;29.90;23.67;;;;;;;;;;5029313;28;20174;-75
2022/12/01 03:35:21;;;;;;;31.30;25.57;;;;;;;;;;5019256;28;20183;-75
2022/12/01 03:37:47;;;;;;;26.93;22.90;;;;;;;;;;5021151;28;20215;-75
2022/12/01 03:40:16;;;;;;;28.23;22.90;;;;;;;;;;5027457;28;20240;-76
2022/12/01 03:42:47;;;;;;;28.10;23.03;;;;;;;;;;5012527;28;20187;-74
2022/12/01 03:45:19;;;;;;;27.80;22.33;;;;;;;;;;5008484;28;20206;-74
2022/12/01 03:47:45;;;;;;;28.67;23.13;;;;;;;;;;5072016;28;20189;-75
2022/12/01 03:50:12;;;;;;;30.20;23.10;;;;;;;;;;5081475;28;20303;-76
2022/12/01 03:52:39;;;;;;;28.47;23.00;;;;;;;;;;5080707;28;20200;-74
2022/12/01 03:55:20;;;;;;;26.30;22.37;;;;;;;;;;5085910;28;20184;-75
2022/12/01 03:58:06;;;;;;;28.73;23.37;;;;;;;;;;5073758;28;20183;-76
2022/12/01 04:00:32;;;;;;;28.20;22.67;;;;;;;;;;5087187;28;20214;-74
2022/12/01 04:03:00;;;;;;;30.10;23.47;;;;;;;;;;5075784;28;20649;-74
2022/12/01 04:05:26;;;;;;;30.43;23.97;;;;;;;;;;5086943;28;20236;-75
2022/12/01 04:07:53;;;;;;;28.53;24.30;;;;;;;;;;5089386;28;20705;-75
2022/12/01 04:10:19;;;;;;;28.60;22.90;;;;;;;;;;5085694;28;20717;-75
2022/12/01 04:12:45;;;;;;;30.70;24.13;;;;;;;;;;5087689;28;20268;-76
2022/12/01 04:15:13;;;;;;;28.27;23.33;;;;;;;;;;5090419;28;20172;-76
2022/12/01 04:17:42;;;;;;;32.23;24.20;;;;;;;;;;5077078;28;20180;-74
2022/12/01 04:20:09;;;;;;;31.90;24.53;;;;;;;;;;5084185;28;20204;-75
2022/12/01 04:22:35;;;;;;;28.80;23.70;;;;;;;;;;5084628;28;20224;-75
2022/12/01 04:25:01;;;;;;;28.60;22.83;;;;;;;;;;5074040;28;20254;-75
2022/12/01 04:27:27;;;;;;;27.47;22.37;;;;;;;;;;5071749;28;20634;-75
2022/12/01 04:29:53;;;;;;;29.50;24.23;;;;;;;;;;5075421;28;20180;-75
2022/12/01 04:32:20;;;;;;;29.60;23.33;;;;;;;;;;5076979;28;20192;-76
2022/12/01 04:34:46;;;;;;;27.40;22.20;;;;;;;;;;5077271;28;20180;-75
2022/12/01 04:37:12;;;;;;;29.63;22.67;;;;;;;;;;5089022;28;20517;-75
2022/12/01 04:39:38;;;;;;;28.77;22.77;;;;;;;;;;5071282;28;20177;-75
2022/12/01 04:42:04;;;;;;;27.70;22.60;;;;;;;;;;5075175;28;21250;-74
2022/12/01 04:44:30;;;;;;;24.17;20.77;;;;;;;;;;5078373;28;20208;-75
2022/12/01 04:46:56;;;;;;;25.77;21.93;;;;;;;;;;5085706;28;20224;-76
2022/12/01 04:49:22;;;;;;;27.37;22.60;;;;;;;;;;5089565;28;20279;-75
2022/12/01 04:51:48;;;;;;;27.80;22.23;;;;;;;;;;5091408;28;20226;-76
2022/12/01 04:54:15;;;;;;;26.53;21.57;;;;;;;;;;5095844;28;20184;-75
2022/12/01 04:56:41;;;;;;;28.20;22.63;;;;;;;;;;5092028;28;20192;-76
2022/12/01 04:59:07;;;;;;;29.30;22.43;;;;;;;;;;5085731;28;20193;-76
2022/12/01 05:01:34;;;;;;;30.67;23.93;;;;;;;;;;5080256;28;20189;-74
2022/12/01 05:04:00;;;;;;;28.33;23.00;;;;;;;;;;5090280;28;20181;-75
2022/12/01 05:06:27;;;;;;;30.60;22.83;;;;;;;;;;5091253;28;20199;-75
2022/12/01 05:08:57;;;;;;;30.73;23.53;;;;;;;;;;5079980;28;20177;-76
2022/12/01 05:11:24;;;;;;;26.23;22.03;;;;;;;;;;5078099;28;20213;-75
2022/12/01 05:13:50;;;;;;;29.30;22.30;;;;;;;;;;5085311;28;20214;-74
2022/12/01 05:16:16;;;;;;;27.07;22.57;;;;;;;;;;5090446;28;20188;-75
2022/12/01 05:18:42;;;;;;;28.33;22.53;;;;;;;;;;5074702;28;20197;-76
2022/12/01 05:21:09;;;;;;;27.50;22.47;;;;;;;;;;5091034;28;20214;-74
2022/12/01 05:23:36;;;;;;;27.67;23.40;;;;;;;;;;5081106;28;20231;-75
2022/12/01 05:26:04;;;;;;;30.80;24.03;;;;;;;;;;5078610;28;20208;-76
2022/12/01 05:28:30;;;;;;;30.10;23.97;;;;;;;;;;5089290;28;20193;-75
2022/12/01 05:30:56;;;;;;;29.90;22.50;;;;;;;;;;5090808;28;20179;-76
2022/12/01 05:33:23;;;;;;;29.80;23.37;;;;;;;;;;5091730;28;20168;-74
2022/12/01 05:35:50;;;;;;;28.07;22.80;;;;;;;;;;5078713;28;20637;-75
2022/12/01 05:38:17;;;;;;;29.70;23.90;;;;;;;;;;5094003;28;20201;-76
2022/12/01 05:40:43;;;;;;;32.13;24.23;;;;;;;;;;5085621;28;20184;-76
2022/12/01 05:43:09;;;;;;;31.77;25.67;;;;;;;;;;5087560;28;20204;-76
2022/12/01 05:45:35;;;;;;;33.83;25.73;;;;;;;;;;5088667;28;20270;-75
2022/12/01 05:48:01;;;;;;;34.47;27.27;;;;;;;;;;5080424;28;20184;-76
2022/12/01 05:50:28;;;;;;;38.67;26.27;;;;;;;;;;5086169;28;20270;-76
2022/12/01 05:52:55;;;;;;;37.30;27.37;;;;;;;;;;5088340;28;20739;-75
2022/12/01 05:55:21;;;;;;;35.40;26.30;;;;;;;;;;5083736;28;20185;-76
2022/12/01 05:57:47;;;;;;;36.97;28.60;;;;;;;;;;5085404;28;20181;-77
2022/12/01 06:00:13;;;;;;;33.97;25.67;;;;;;;;;;5084618;28;20181;-75
2022/12/01 06:02:40;;;;;;;34.53;26.90;;;;;;;;;;5076792;28;20173;-76
2022/12/01 06:05:06;;;;;;;34.60;26.20;;;;;;;;;;5080569;28;20299;-75
2022/12/01 06:07:33;;;;;;;37.97;27.10;;;;;;;;;;5089488;28;20653;-75
2022/12/01 06:09:59;;;;;;;38.10;28.13;;;;;;;;;;5074090;28;20725;-76
2022/12/01 06:12:25;;;;;;;37.83;27.70;;;;;;;;;;5081916;28;20188;-76
2022/12/01 06:14:51;;;;;;;33.43;26.67;;;;;;;;;;5088502;28;20191;-76
2022/12/01 06:17:17;;;;;;;39.97;29.23;;;;;;;;;;5084187;28;20176;-74
2022/12/01 06:19:44;;;;;;;36.47;28.40;;;;;;;;;;5087564;28;20212;-75
2022/12/01 06:22:10;;;;;;;39.53;29.17;;;;;;;;;;5087966;28;20244;-74
2022/12/01 06:24:36;;;;;;;35.50;27.67;;;;;;;;;;5089502;28;20184;-75
2022/12/01 06:27:02;;;;;;;35.97;27.00;;;;;;;;;;5078475;28;20212;-76
2022/12/01 06:29:28;;;;;;;36.00;27.53;;;;;;;;;;5083988;28;20223;-75
2022/12/01 06:31:54;;;;;;;38.07;29.13;;;;;;;;;;5085691;28;20185;-76
2022/12/01 06:34:20;;;;;;;35.60;26.50;;;;;;;;;;5084884;28;20189;-76
2022/12/01 06:36:46;;;;;;;37.63;27.60;;;;;;;;;;5089527;28;20254;-75
2022/12/01 06:39:14;;;;;;;38.17;29.13;;;;;;;;;;5077134;28;20177;-77
2022/12/01 06:41:40;;;;;;;35.73;28.27;;;;;;;;;;5094821;28;20211;-75
2022/12/01 06:44:06;;;;;;;36.43;28.00;;;;;;;;;;5095170;28;20199;-75
2022/12/01 06:46:32;;;;;;;33.87;25.13;;;;;;;;;;5084412;28;20236;-76
2022/12/01 06:48:58;;;;;;;33.27;25.10;;;;;;;;;;5089129;28;20181;-76
2022/12/01 06:51:24;;;;;;;28.87;24.37;;;;;;;;;;5089645;28;20536;-76
2022/12/01 06:53:56;;;;;;;32.30;25.27;;;;;;;;;;5088029;28;20192;-75
2022/12/01 06:56:23;;;;;;;32.67;25.17;;;;;;;;;;5095778;28;20274;-75
2022/12/01 06:58:49;;;;;;;29.90;24.63;;;;;;;;;;5096302;28;20176;-77
2022/12/01 07:01:15;;;;;;;31.77;24.00;;;;;;;;;;5093961;28;20181;-76
2022/12/01 07:03:41;;;;;;;29.67;23.93;;;;;;;;;;5091183;28;20205;-75
2022/12/01 07:06:08;;;;;;;29.47;23.33;;;;;;;;;;5095083;28;20207;-75
2022/12/01 07:08:34;;;;;;;30.83;23.57;;;;;;;;;;5093944;28;20341;-75
2022/12/01 07:11:02;;;;;;;30.70;23.87;;;;;;;;;;5089045;28;20215;-76
2022/12/01 07:13:28;;;;;;;29.10;22.73;;;;;;;;;;5086104;28;20181;-75
2022/12/01 07:15:54;;;;;;;31.33;24.03;;;;;;;;;;5086743;28;20232;-75
2022/12/01 07:18:20;;;;;;;32.13;24.93;;;;;;;;;;5090681;28;20171;-75
2022/12/01 07:20:46;;;;;;;32.57;25.83;;;;;;;;;;5087684;28;20199;-76
2022/12/01 07:23:12;;;;;;;29.10;22.30;;;;;;;;;;5089274;28;20215;-76
2022/12/01 07:25:38;;;;;;;29.37;23.77;;;;;;;;;;5087959;28;20211;-76
2022/12/01 07:28:04;;;;;;;26.10;21.77;;;;;;;;;;5088238;28;20591;-75
2022/12/01 07:30:30;;;;;;;28.27;22.93;;;;;;;;;;5083659;28;20199;-75
2022/12/01 07:32:56;;;;;;;28.00;20.43;;;;;;;;;;5089599;28;20586;-76
2022/12/01 07:35:22;;;;;;;24.07;20.20;;;;;;;;;;5086507;28;20191;-75
2022/12/01 07:37:53;;;;;;;26.30;21.17;;;;;;;;;;5089014;28;20580;-76
2022/12/01 07:40:19;;;;;;;25.00;21.00;;;;;;;;;;5085462;28;20212;-74
2022/12/01 07:42:45;;;;;;;27.03;21.30;;;;;;;;;;5088217;28;20322;-76
2022/12/01 07:45:11;;;;;;;26.90;22.10;;;;;;;;;;5088907;28;20200;-75
2022/12/01 07:47:37;;;;;;;26.63;22.30;;;;;;;;;;5088648;28;20203;-75
2022/12/01 07:50:03;;;;;;;27.23;22.17;;;;;;;;;;5087840;28;20181;-75
2022/12/01 07:52:29;;;;;;;27.93;23.43;;;;;;;;;;5076028;28;20188;-76
2022/12/01 07:54:55;;;;;;;27.40;23.13;;;;;;;;;;5071984;28;20177;-75
2022/12/01 07:57:22;;;;;;;31.90;25.70;;;;;;;;;;5075420;28;20674;-75
2022/12/01 07:59:48;;;;;;;32.70;25.47;;;;;;;;;;5078420;28;20189;-75
2022/12/01 08:02:14;;;;;;;33.57;27.73;;;;;;;;;;5081408;28;20181;-76
2022/12/01 08:04:40;;;;;;;38.30;28.83;;;;;;;;;;5074413;28;20276;-75
2022/12/01 08:07:06;;;;;;;37.13;28.67;;;;;;;;;;5087146;28;20219;-74
2022/12/01 08:09:32;;;;;;;35.73;27.90;;;;;;;;;;5089470;28;20191;-76
2022/12/01 08:11:58;;;;;;;35.17;27.97;;;;;;;;;;5081106;28;20508;-74
2022/12/01 08:14:24;;;;;;;32.07;26.20;;;;;;;;;;5081387;28;20208;-76
2022/12/01 08:16:50;;;;;;;31.83;25.10;;;;;;;;;;5081680;28;20715;-75
2022/12/01 08:19:16;;;;;;;30.70;24.60;;;;;;;;;;5078322;28;20185;-76
2022/12/01 08:21:42;;;;;;;31.80;24.60;;;;;;;;;;5080701;28;20188;-76
2022/12/01 08:24:10;;;;;;;33.90;26.27;;;;;;;;;;5075071;28;20217;-75
2022/12/01 08:26:36;;;;;;;33.40;24.70;;;;;;;;;;5080586;28;20207;-76
2022/12/01 08:29:02;;;;;;;34.60;25.13;;;;;;;;;;5079735;28;20545;-76
2022/12/01 08:31:30;;;;;;;32.43;25.23;;;;;;;;;;5076064;28;20202;-75
2022/12/01 08:33:56;;;;;;;32.33;25.90;;;;;;;;;;5090848;28;20189;-76
2022/12/01 08:36:23;;;;;;;33.87;25.77;;;;;;;;;;5087292;28;20187;-75
2022/12/01 08:38:51;;;;;;;34.97;24.97;;;;;;;;;;5080774;28;20553;-76
2022/12/01 08:41:17;;;;;;;35.10;25.80;;;;;;;;;;5084702;28;20188;-77
2022/12/01 08:43:43;;;;;;;35.43;27.20;;;;;;;;;;5084061;28;20189;-76
2022/12/01 08:46:10;;;;;;;33.37;26.13;;;;;;;;;;5092599;28;20287;-76
2022/12/01 08:48:36;;;;;;;34.37;27.23;;;;;;;;;;5110564;28;20186;-77
2022/12/01 08:51:02;;;;;;;34.47;26.40;;;;;;;;;;5091721;28;20217;-76
2022/12/01 08:53:28;;;;;;;35.13;26.30;;;;;;;;;;5087760;28;20185;-77
2022/12/01 08:55:54;;;;;;;32.73;25.57;;;;;;;;;;5087898;28;20267;-76
2022/12/01 08:58:20;;;;;;;34.07;27.03;;;;;;;;;;5076572;28;20742;-77
2022/12/01 09:00:46;;;;;;;31.30;25.20;;;;;;;;;;5076797;28;20208;-76
2022/12/01 09:03:12;;;;;;;29.07;23.93;;;;;;;;;;5090072;28;20573;-75
2022/12/01 09:05:39;;;;;;;28.50;22.87;;;;;;;;;;5080430;28;20262;-74
2022/12/01 09:10:52;;;;;;;24.90;21.23;;;;;;;;;;5089253;28;20202;-75
2022/12/01 09:13:18;;;;;;;30.43;23.43;;;;;;;;;;5089358;28;20190;-77
2022/12/01 09:15:44;;;;;;;29.10;23.23;;;;;;;;;;5076350;28;20213;-74
2022/12/01 09:18:10;;;;;;;28.87;24.13;;;;;;;;;;5079147;28;20201;-75
2022/12/01 09:20:36;;;;;;;29.40;23.77;;;;;;;;;;5089579;28;20275;-76
2022/12/01 09:23:02;;;;;;;29.63;24.10;;;;;;;;;;5086217;28;20229;-74
2022/12/01 09:25:29;;;;;;;30.63;23.93;;;;;;;;;;5085898;28;20613;-78
2022/12/01 09:27:55;;;;;;;29.53;23.40;;;;;;;;;;5073967;28;20566;-77
2022/12/01 09:30:21;;;;;;;33.00;25.10;;;;;;;;;;5078496;28;20169;-78
2022/12/01 09:32:47;;;;;;;30.73;25.20;;;;;;;;;;5088676;28;20192;-77
2022/12/01 09:35:13;;;;;;;28.50;23.50;;;;;;;;;;5086899;28;20226;-77
2022/12/01 09:37:39;;;;;;;32.37;25.83;;;;;;;;;;5087753;28;20679;-77
2022/12/01 09:40:06;;;;;;;31.40;26.47;;;;;;;;;;5072808;28;20311;-76
2022/12/01 09:42:32;;;;;;;34.70;26.63;;;;;;;;;;5078317;28;20181;-75
2022/12/01 09:45:00;;;;;;;34.20;26.50;;;;;;;;;;5081448;28;20776;-78
2022/12/01 09:47:31;;;;;;;33.67;25.83;;;;;;;;;;5084297;28;20196;-77
2022/12/01 09:50:10;;;;;;;34.60;26.43;;;;;;;;;;5091719;28;20181;-77
2022/12/01 09:53:00;;;;;;;33.63;26.33;;;;;;;;;;5086855;28;20530;-77
2022/12/01 09:55:28;;;;;;;37.00;27.57;;;;;;;;;;5077711;28;20670;-77
2022/12/01 09:57:59;;;;;;;34.97;27.30;;;;;;;;;;5075161;28;20188;-76
2022/12/01 10:00:27;;;;;;;36.17;27.47;;;;;;;;;;5090934;28;20833;-75
2022/12/01 10:02:56;;;;;;;35.57;28.60;;;;;;;;;;5087809;28;20233;-76
2022/12/01 10:05:23;;;;;;;35.47;28.20;;;;;;;;;;5086062;28;20257;-76
2022/12/01 10:07:49;;;;;;;36.93;28.67;;;;;;;;;;5087831;28;20653;-75
2022/12/01 10:10:24;;;;;;;37.40;27.67;;;;;;;;;;5088765;28;20188;-74
2022/12/01 10:12:50;;;;;;;36.03;28.07;;;;;;;;;;5085378;28;20175;-75
2022/12/01 10:15:27;;;;;;;37.70;26.80;;;;;;;;;;5077081;28;20177;-76
2022/12/01 10:18:26;;;;;;;34.80;27.03;;;;;;;;;;5087476;28;20192;-76
2022/12/01 10:20:54;;;;;;;36.53;27.10;;;;;;;;;;5027124;28;20655;-76
2022/12/01 10:23:26;;;;;;;37.37;28.03;;;;;;;;;;5005812;28;20230;-76
2022/12/01 10:25:56;;;;;;;37.93;28.23;;;;;;;;;;5028080;28;20213;-76
2022/12/01 10:28:41;;;;;;;41.67;28.47;;;;;;;;;;5026822;28;20221;-76
2022/12/01 10:31:14;;;;;;;43.73;29.33;;;;;;;;;;5010840;28;20256;-75
2022/12/01 10:33:44;;;;;;;40.00;27.67;;;;;;;;;;5028904;28;20186;-75
2022/12/01 10:36:10;;;;;;;39.13;28.13;;;;;;;;;;5010036;28;20186;-74
2022/12/01 10:38:37;;;;;;;37.60;29.33;;;;;;;;;;5020123;28;20198;-76
2022/12/01 10:41:03;;;;;;;38.60;29.13;;;;;;;;;;5018037;28;20233;-76
2022/12/01 10:43:50;;;;;;;39.57;29.70;;;;;;;;;;5025179;28;20226;-76
2022/12/01 10:46:21;;;;;;;37.90;28.57;;;;;;;;;;5009889;28;20644;-75
2022/12/01 10:48:52;;;;;;;38.20;29.10;;;;;;;;;;5023824;28;20178;-75
2022/12/01 10:51:19;;;;;;;40.53;28.50;;;;;;;;;;5028703;28;20641;-75
2022/12/01 10:53:45;;;;;;;40.03;28.73;;;;;;;;;;5031060;28;20195;-74
2022/12/01 10:56:13;;;;;;;40.47;30.40;;;;;;;;;;5050213;28;20236;-75
2022/12/01 10:58:51;;;;;;;40.80;31.83;;;;;;;;;;5085151;28;20240;-76
2022/12/01 11:01:24;;;;;;;39.80;28.83;;;;;;;;;;5071083;28;20176;-75
2022/12/01 11:03:52;;;;;;;36.10;27.87;;;;;;;;;;5071373;28;20177;-75
2022/12/01 11:06:21;;;;;;;33.40;26.23;;;;;;;;;;5082339;28;20207;-76
2022/12/01 11:08:51;;;;;;;36.67;26.50;;;;;;;;;;5084848;28;20192;-75
2022/12/01 11:11:28;;;;;;;34.90;24.70;;;;;;;;;;5084189;28;20494;-76
2022/12/01 11:13:55;;;;;;;34.73;24.90;;;;;;;;;;5074617;28;20177;-76
2022/12/01 11:16:41;;;;;;;32.60;24.43;;;;;;;;;;5087585;28;20181;-75
2022/12/01 11:19:09;;;;;;;35.70;24.53;;;;;;;;;;5087292;28;20625;-75
2022/12/01 11:21:43;;;;;;;31.43;23.10;;;;;;;;;;5085601;28;20625;-76
2022/12/01 11:24:17;;;;;;;33.30;24.23;;;;;;;;;;5078533;28;20692;-75
2022/12/01 11:26:43;;;;;;;36.70;26.93;;;;;;;;;;5086414;28;20688;-75
2022/12/01 11:29:39;;;;;;;41.67;28.70;;;;;;;;;;5086797;28;20532;-75
2022/12/01 11:32:21;;;;;;;44.57;31.40;;;;;;;;;;5060717;28;20674;-76
2022/12/01 11:34:50;;;;;;;42.03;32.50;;;;;;;;;;5086706;28;20680;-74
2022/12/01 11:37:18;;;;;;;47.30;33.37;;;;;;;;;;5069596;28;20277;-75
2022/12/01 11:39:46;;;;;;;44.57;33.87;;;;;;;;;;5075735;28;20175;-76
2022/12/01 11:42:13;;;;;;;47.93;34.53;;;;;;;;;;5087217;28;20681;-74
2022/12/01 11:44:46;;;;;;;48.27;36.07;;;;;;;;;;5085372;28;20176;-75
2022/12/01 11:47:17;;;;;;;48.10;35.23;;;;;;;;;;5083331;28;20255;-74
2022/12/01 11:49:45;;;;;;;47.63;34.30;;;;;;;;;;5090286;28;20181;-76
2022/12/01 11:52:23;;;;;;;51.83;35.80;;;;;;;;;;5082319;28;20636;-75
2022/12/01 11:54:59;;;;;;;49.27;34.37;;;;;;;;;;5085398;28;20180;-76
2022/12/01 11:57:27;;;;;;;60.03;39.87;;;;;;;;;;5087187;28;20203;-74
2022/12/01 11:59:54;;;;;;;61.47;40.00;;;;;;;;;;5088204;28;20183;-75
2022/12/01 12:02:23;;;;;;;63.10;42.37;;;;;;;;;;5084667;28;20183;-76
2022/12/01 12:05:02;;;;;;;66.83;41.57;;;;;;;;;;5073283;28;20533;-76
2022/12/01 12:07:34;;;;;;;62.60;40.33;;;;;;;;;;5077529;28;20203;-76
2022/12/01 12:10:03;;;;;;;62.07;40.10;;;;;;;;;;5088106;28;20207;-76
2022/12/01 12:12:41;;;;;;;59.40;39.13;;;;;;;;;;5070917;28;20181;-75
2022/12/01 12:15:14;;;;;;;67.90;41.77;;;;;;;;;;5083247;28;20188;-75
2022/12/01 12:17:46;;;;;;;72.70;40.77;;;;;;;;;;5082265;28;20212;-76
2022/12/01 12:20:27;;;;;;;64.63;40.57;;;;;;;;;;5082503;28;20183;-74
2022/12/01 12:23:17;;;;;;;66.87;41.30;;;;;;;;;;5087122;28;20220;-76
2022/12/01 12:25:46;;;;;;;60.57;40.60;;;;;;;;;;5098821;28;20254;-75
2022/12/01 12:28:19;;;;;;;70.70;42.97;;;;;;;;;;5073548;28;20219;-76
2022/12/01 12:30:49;;;;;;;71.17;39.93;;;;;;;;;;5074651;28;20169;-76
2022/12/01 12:33:30;;;;;;;67.57;40.07;;;;;;;;;;5087720;28;20188;-74
2022/12/01 12:35:59;;;;;;;69.47;40.43;;;;;;;;;;5089158;28;20199;-75
2022/12/01 12:38:45;;;;;;;66.77;40.47;;;;;;;;;;5083143;28;20641;-76
2022/12/01 12:41:30;;;;;;;68.53;40.43;;;;;;;;;;5073040;28;20237;-74
2022/12/01 12:44:02;;;;;;;66.30;40.57;;;;;;;;;;5074991;28;20185;-75
2022/12/01 12:46:43;;;;;;;61.90;38.47;;;;;;;;;;5079998;28;20690;-74
2022/12/01 12:49:18;;;;;;;67.37;38.57;;;;;;;;;;5099722;28;20225;-75
2022/12/01 12:51:54;;;;;;;66.23;38.90;;;;;;;;;;5089051;28;20207;-75
2022/12/01 12:54:32;;;;;;;64.20;38.97;;;;;;;;;;5079188;28;20606;-74
2022/12/01 12:57:01;;;;;;;66.33;37.70;;;;;;;;;;5085696;28;20251;-75
2022/12/01 12:59:30;;;;;;;65.00;37.93;;;;;;;;;;5086614;28;20219;-75
2022/12/01 13:02:17;;;;;;;59.70;34.97;;;;;;;;;;5074296;28;20182;-75
2022/12/01 13:05:04;;;;;;;59.03;37.37;;;;;;;;;;5084553;28;20558;-76
2022/12/01 13:07:39;;;;;;;56.23;35.70;;;;;;;;;;5027164;28;20257;-75
2022/12/01 13:10:26;;;;;;;58.43;34.13;;;;;;;;;;5010312;28;20189;-76
2022/12/01 13:13:24;;;;;;;52.63;34.13;;;;;;;;;;5020103;28;20224;-74
2022/12/01 13:15:51;;;;;;;60.53;37.67;;;;;;;;;;4977675;28;20192;-75
2022/12/01 13:18:26;;;;;;;60.33;37.43;;;;;;;;;;4965531;28;20283;-75
2022/12/01 13:20:52;;;;;;;57.23;34.70;;;;;;;;;;4974709;28;20191;-75
2022/12/01 13:23:20;;;;;;;59.43;36.20;;;;;;;;;;4989116;28;20716;-76
2022/12/01 13:25:48;;;;;;;64.33;37.67;;;;;;;;;;4988179;28;20223;-75
2022/12/01 13:28:18;;;;;;;61.80;36.77;;;;;;;;;;4972517;28;20260;-75
2022/12/01 13:31:01;;;;;;;55.13;31.93;;;;;;;;;;4988175;28;20585;-75
2022/12/01 13:33:27;;;;;;;51.27;30.27;;;;;;;;;;4980582;28;20250;-75
2022/12/01 13:35:54;;;;;;;50.37;30.53;;;;;;;;;;4979666;28;20200;-76
2022/12/01 13:38:23;;;;;;;48.27;30.50;;;;;;;;;;4976005;28;20224;-75
2022/12/01 13:41:08;;;;;;;47.27;29.77;;;;;;;;;;4988306;28;20238;-75
2022/12/01 13:43:35;;;;;;;39.13;26.00;;;;;;;;;;4993849;28;20187;-76
2022/12/01 13:46:02;;;;;;;37.03;23.53;;;;;;;;;;5014259;28;20214;-76
2022/12/01 13:48:28;;;;;;;34.53;22.13;;;;;;;;;;5029171;28;20248;-75
2022/12/01 13:50:56;;;;;;;34.57;21.57;;;;;;;;;;5047391;28;20627;-76
2022/12/01 13:53:22;;;;;;;34.30;20.30;;;;;;;;;;5090046;28;20193;-75
2022/12/01 13:56:00;;;;;;;33.70;21.63;;;;;;;;;;5091429;28;20185;-75
2022/12/01 13:58:41;;;;;;;33.13;21.10;;;;;;;;;;5073272;28;20185;-75
2022/12/01 14:01:19;;;;;;;29.33;18.97;;;;;;;;;;5089331;28;20221;-74
2022/12/01 14:04:04;;;;;;;30.90;19.57;;;;;;;;;;5073081;28;20629;-76
2022/12/01 14:06:38;;;;;;;31.30;20.50;;;;;;;;;;5088141;28;20212;-75
2022/12/01 14:09:15;;;;;;;25.37;17.03;;;;;;;;;;5090666;28;20188;-75
2022/12/01 14:11:41;;;;;;;23.63;16.13;;;;;;;;;;5085857;28;20207;-76
2022/12/01 14:14:11;;;;;;;20.77;13.10;;;;;;;;;;5086630;28;20258;-76
2022/12/01 14:17:01;;;;;;;21.87;14.47;;;;;;;;;;5088997;28;20188;-76
2022/12/01 14:19:36;;;;;;;18.50;13.33;;;;;;;;;;5073949;28;20966;-76
2022/12/01 14:22:03;;;;;;;16.17;12.20;;;;;;;;;;5089932;28;20172;-76
2022/12/01 14:24:29;;;;;;;17.53;11.60;;;;;;;;;;5086621;28;20176;-76
2022/12/01 14:26:55;;;;;;;16.57;11.27;;;;;;;;;;5081626;28;20334;-76
2022/12/01 14:29:24;;;;;;;17.00;11.47;;;;;;;;;;5079144;28;20176;-76
2022/12/01 14:31:50;;;;;;;15.27;11.57;;;;;;;;;;5076333;28;20181;-76
2022/12/01 14:34:23;;;;;;;16.33;11.67;;;;;;;;;;5074323;28;20342;-76
2022/12/01 14:36:49;;;;;;;13.40;10.97;;;;;;;;;;5071035;28;20226;-76